Time;durP1;ratioP1;P1;durP2;ratioP2;P2;SDS_P1;SDS_P2;PMS_P1;PMS_P2;Temp;Humidity;BMP_temperature;BMP_pressure;BME280_temperature;BME280_humidity;BME280_pressure;Samples;Min_cycle;Max_cycle;Signal;HPM_P1;HPM_P2
2022/01/18 00:00:28;;;;;;;2.47;2.27;;;;;;;7.79;60.91;94753.09;5072753;28;20186;-87
2022/01/18 00:02:56;;;;;;;2.30;2.10;;;;;;;7.80;61.13;94768.25;5073348;28;20271;-88
2022/01/18 00:05:22;;;;;;;2.87;2.30;;;;;;;7.89;60.88;94776.09;5072421;28;20186;-85
2022/01/18 00:07:49;;;;;;;2.27;2.17;;;;;;;7.86;61.05;94778.88;5071855;28;20193;-85
2022/01/18 00:10:17;;;;;;;2.37;2.20;;;;;;;7.84;61.13;94786.63;5071913;28;20187;-86
2022/01/18 00:12:56;;;;;;;2.50;2.30;;;;;;;7.83;60.94;94791.84;5073432;28;20635;-85
2022/01/18 00:15:39;;;;;;;2.50;2.30;;;;;;;7.79;60.81;94784.44;5071805;28;20577;-85
2022/01/18 00:18:11;;;;;;;2.50;2.30;;;;;;;7.47;60.81;94735.22;5071739;28;20720;-84
2022/01/18 00:20:56;;;;;;;2.67;2.47;;;;;;;7.78;60.59;94804.94;5071529;28;20198;-80
2022/01/18 00:23:24;;;;;;;2.97;2.57;;;;;;;7.71;60.34;94793.59;5071675;28;20214;-82
2022/01/18 00:25:55;;;;;;;2.73;2.53;;;;;;;7.66;60.22;94786.31;5071607;28;20194;-79
2022/01/18 00:28:23;;;;;;;2.60;2.40;;;;;;;7.77;60.36;94814.31;5071838;28;20277;-82
2022/01/18 00:33:55;;;;;;;3.07;2.77;;;;;;;7.76;59.82;94796.59;5063223;28;20669;-84
2022/01/18 00:36:36;;;;;;;2.97;2.73;;;;;;;7.77;59.65;94806.69;5072689;28;20191;-83
2022/01/18 00:39:06;;;;;;;2.93;2.60;;;;;;;7.66;59.38;94793.16;5071589;28;20281;-78
2022/01/18 00:41:33;;;;;;;2.83;2.63;;;;;;;7.75;59.38;94790.69;5070024;28;20196;-78
2022/01/18 00:43:59;;;;;;;2.60;2.40;;;;;;;7.67;59.31;94789.69;5070497;28;20217;-80
2022/01/18 00:46:27;;;;;;;2.60;2.40;;;;;;;7.72;59.22;94810.50;5070635;28;20810;-81
2022/01/18 00:48:57;;;;;;;3.00;2.80;;;;;;;7.69;59.17;94814.09;5070323;28;20575;-81
2022/01/18 00:51:24;;;;;;;2.77;2.57;;;;;;;7.61;58.98;94813.88;5070897;28;20192;-82
2022/01/18 00:53:51;;;;;;;2.90;2.60;;;;;;;7.62;58.93;94832.50;5070358;28;20623;-81
2022/01/18 00:56:22;;;;;;;2.80;2.60;;;;;;;7.64;58.94;94845.91;5070677;28;20576;-82
2022/01/18 00:58:50;;;;;;;2.90;2.70;;;;;;;7.46;58.81;94812.47;5070868;28;20232;-79
2022/01/18 01:01:19;;;;;;;3.30;2.90;;;;;;;7.65;58.73;94860.25;5070576;28;20198;-80
2022/01/18 01:03:46;;;;;;;3.50;2.93;;;;;;;7.65;58.60;94866.16;5070060;28;20248;-78
2022/01/18 01:06:14;;;;;;;2.87;2.67;;;;;;;7.68;58.59;94865.09;5070522;28;20267;-75
2022/01/18 01:08:42;;;;;;;3.77;2.87;;;;;;;7.62;58.28;94861.28;5069535;28;20197;-76
2022/01/18 01:11:10;;;;;;;3.30;2.63;;;;;;;7.72;58.41;94879.22;5070090;28;20209;-77
2022/01/18 01:13:42;;;;;;;5.73;2.97;;;;;;;7.59;58.60;94858.97;5070567;28;20190;-77
2022/01/18 01:16:23;;;;;;;3.20;2.97;;;;;;;7.71;58.76;94880.16;5070722;28;20198;-77
2022/01/18 01:19:07;;;;;;;3.50;3.20;;;;;;;7.74;58.75;94890.91;5070285;28;20194;-80
2022/01/18 01:35:43;;;;;;;3.53;3.20;;;;;;;7.67;61.11;94955.91;5027661;28;20761;-76
2022/01/18 01:44:00;;;;;;;5.47;3.00;;;;;;;7.52;63.56;94936.72;5027539;28;20597;-76
2022/01/18 01:46:28;;;;;;;3.50;2.97;;;;;;;7.25;64.29;94902.19;5027792;28;20187;-79
2022/01/18 01:48:57;;;;;;;4.30;3.73;;;;;;;7.36;64.40;94939.56;5027555;28;20203;-75
2022/01/18 01:51:29;;;;;;;3.00;2.80;;;;;;;7.23;64.24;94926.91;5027797;28;20791;-78
2022/01/18 01:53:58;;;;;;;3.50;3.13;;;;;;;7.22;64.34;94924.50;5027842;28;20192;-82
2022/01/18 01:56:25;;;;;;;3.53;3.13;;;;;;;7.16;64.08;94917.28;5027415;28;20262;-81
2022/01/18 01:58:52;;;;;;;3.23;2.63;;;;;;;7.10;63.48;94923.66;5027328;28;20191;-81
2022/01/18 02:01:19;;;;;;;4.27;2.97;;;;;;;7.06;63.04;94922.25;5028013;28;20663;-81
2022/01/18 02:03:46;;;;;;;3.10;2.90;;;;;;;7.01;62.45;94930.22;5027202;28;20192;-80
2022/01/18 02:06:13;;;;;;;2.73;2.53;;;;;;;6.97;61.96;94945.78;5044028;28;20199;-81
2022/01/18 02:08:40;;;;;;;3.20;2.77;;;;;;;6.91;61.28;94961.47;5069760;28;20186;-81
2022/01/18 02:11:08;;;;;;;2.70;2.50;;;;;;;6.86;60.74;94960.97;5069763;28;20217;-77
2022/01/18 02:13:35;;;;;;;2.50;2.40;;;;;;;6.81;59.47;94950.34;5069895;28;20194;-76
2022/01/18 02:16:19;;;;;;;2.67;2.47;;;;;;;6.79;58.68;94974.13;5069537;28;20193;-79
2022/01/18 02:21:46;;;;;;;2.50;2.30;;;;;;;6.65;56.96;95002.25;5072547;28;20186;-81
2022/01/18 02:24:16;;;;;;;2.00;1.80;;;;;;;6.59;56.10;95009.47;5073238;28;20252;-80
2022/01/18 02:26:42;;;;;;;2.07;1.97;;;;;;;6.55;55.69;95003.78;5073204;28;20273;-80
2022/01/18 02:29:11;;;;;;;2.20;2.00;;;;;;;6.47;54.81;95011.94;5072972;28;20197;-81
2022/01/18 02:31:39;;;;;;;2.40;2.20;;;;;;;6.40;54.38;95017.56;5073480;28;20186;-81
2022/01/18 02:34:08;;;;;;;2.30;2.10;;;;;;;6.32;54.01;95018.06;5073392;28;20182;-79
2022/01/18 02:36:36;;;;;;;2.07;1.90;;;;;;;6.29;53.80;95033.50;5073082;28;20190;-76
2022/01/18 02:39:04;;;;;;;2.17;2.03;;;;;;;6.25;53.06;95037.97;5073138;28;20205;-80
2022/01/18 02:41:32;;;;;;;3.17;2.00;;;;;;;6.02;52.71;95014.13;5072801;28;20190;-78
2022/01/18 02:44:00;;;;;;;3.60;2.20;;;;;;;6.14;52.31;95057.41;5072807;28;20243;-80
2022/01/18 02:46:27;;;;;;;2.50;2.30;;;;;;;6.09;51.98;95057.72;5072984;28;20201;-79
2022/01/18 02:48:55;;;;;;;2.00;1.90;;;;;;;6.09;52.05;95061.94;5073013;28;20285;-79
2022/01/18 02:51:22;;;;;;;2.33;1.80;;;;;;;6.05;51.49;95068.97;5073422;28;20183;-78
2022/01/18 02:53:57;;;;;;;5.10;2.43;;;;;;;5.99;51.18;95069.38;5072898;28;20194;-81
2022/01/18 02:56:25;;;;;;;2.60;2.07;;;;;;;5.73;51.02;95048.19;5073311;28;20190;-79
2022/01/18 02:58:58;;;;;;;3.33;2.40;;;;;;;5.86;50.76;95082.00;5073182;28;20193;-78
2022/01/18 03:04:08;;;;;;;2.10;2.00;;;;;;;5.78;50.54;95074.88;5030359;28;20593;-80
2022/01/18 03:06:35;;;;;;;2.60;2.40;;;;;;;5.70;50.23;95082.19;5030485;28;20191;-78
2022/01/18 03:09:03;;;;;;;2.17;2.00;;;;;;;5.68;50.05;95094.16;5030544;28;20251;-79
2022/01/18 03:11:30;;;;;;;3.13;2.30;;;;;;;5.64;49.89;95100.34;5030291;28;20776;-78
2022/01/18 03:13:57;;;;;;;2.30;2.10;;;;;;;5.60;49.87;95098.09;5029923;28;20184;-78
2022/01/18 03:16:24;;;;;;;2.27;2.07;;;;;;;5.57;49.84;95100.81;5030311;28;20215;-77
2022/01/18 03:18:50;;;;;;;2.43;2.10;;;;;;;5.51;49.75;95107.91;5029867;28;20196;-79
2022/01/18 03:21:17;;;;;;;2.63;2.20;;;;;;;5.44;49.83;95096.53;5030141;28;20191;-78
2022/01/18 03:23:50;;;;;;;3.67;2.23;;;;;;;5.40;49.76;95100.19;5030137;28;20315;-79
2022/01/18 03:26:19;;;;;;;3.40;2.47;;;;;;;5.36;49.75;95110.63;5030064;28;20218;-76
2022/01/18 03:28:45;;;;;;;2.67;2.47;;;;;;;5.32;49.68;95117.59;5030034;28;20198;-79
2022/01/18 03:31:12;;;;;;;2.43;2.27;;;;;;;5.25;49.74;95116.34;5029721;28;20210;-78
2022/01/18 03:33:39;;;;;;;2.37;2.17;;;;;;;5.28;49.66;95116.16;5030249;28;20188;-80
2022/01/18 03:36:06;;;;;;;2.67;2.47;;;;;;;5.28;49.53;95124.56;5030125;28;20602;-79
2022/01/18 03:38:33;;;;;;;2.87;2.67;;;;;;;5.23;49.60;95121.50;5030506;28;20642;-78
2022/01/18 03:41:02;;;;;;;3.07;2.80;;;;;;;5.17;49.55;95133.75;5051192;28;20198;-79
2022/01/18 03:43:31;;;;;;;2.57;2.37;;;;;;;5.18;49.73;95143.81;5079589;28;20256;-75
2022/01/18 03:46:01;;;;;;;2.90;2.50;;;;;;;5.17;49.88;95142.16;5075517;28;20221;-81
2022/01/18 03:48:32;;;;;;;4.53;2.70;;;;;;;5.15;49.71;95138.91;5077069;28;20365;-80
2022/01/18 03:51:00;;;;;;;2.87;2.67;;;;;;;5.11;49.85;95144.25;5074708;28;20197;-79
2022/01/18 03:53:27;;;;;;;4.47;2.60;;;;;;;5.09;49.82;95146.06;5074833;28;20623;-76
2022/01/18 03:55:55;;;;;;;3.10;2.70;;;;;;;4.93;49.92;95138.59;5072317;28;20202;-80
2022/01/18 03:58:22;;;;;;;3.10;2.60;;;;;;;5.03;50.03;95153.13;5071459;28;20734;-77
2022/01/18 04:00:51;;;;;;;2.83;2.63;;;;;;;5.00;49.92;95160.91;5070908;28;20198;-78
2022/01/18 04:03:18;;;;;;;2.67;2.47;;;;;;;4.86;49.77;95135.59;5071500;28;20248;-78
2022/01/18 04:05:46;;;;;;;2.93;2.47;;;;;;;4.96;49.77;95158.66;5071687;28;20206;-80
2022/01/18 04:08:13;;;;;;;2.83;2.50;;;;;;;4.93;49.81;95161.41;5071822;28;20194;-77
2022/01/18 04:10:40;;;;;;;2.80;2.50;;;;;;;4.90;49.77;95171.72;5071423;28;20198;-80
2022/01/18 04:13:07;;;;;;;2.80;2.60;;;;;;;4.88;49.70;95184.47;5071496;28;20255;-77
2022/01/18 04:15:34;;;;;;;3.13;2.63;;;;;;;4.91;49.60;95206.28;5071020;28;20190;-78
2022/01/18 04:18:18;;;;;;;2.83;2.40;;;;;;;4.86;50.04;95220.94;5070536;28;20226;-78
2022/01/18 04:29:00;;;;;;;3.63;2.47;;;;;;;4.81;49.61;95251.63;5070880;28;20700;-79
2022/01/18 04:31:29;;;;;;;2.30;2.20;;;;;;;4.59;49.55;95219.13;5070346;28;20190;-79
2022/01/18 04:33:58;;;;;;;3.63;2.80;;;;;;;4.80;49.68;95264.38;5071033;28;20194;-79
2022/01/18 04:36:26;;;;;;;3.03;2.60;;;;;;;4.80;49.59;95274.53;5071010;28;20276;-79
2022/01/18 04:38:53;;;;;;;3.53;2.67;;;;;;;4.72;49.54;95260.56;5071134;28;20261;-79
2022/01/18 04:41:26;;;;;;;6.10;2.90;;;;;;;4.75;49.50;95283.19;5071422;28;20182;-78
2022/01/18 04:44:09;;;;;;;4.53;2.70;;;;;;;4.72;49.62;95290.16;5071136;28;20297;-78
2022/01/18 04:49:21;;;;;;;3.83;2.87;;;;;;;4.70;49.62;95302.91;5073634;28;20174;-82
2022/01/18 04:51:48;;;;;;;3.17;2.83;;;;;;;4.70;49.52;95315.56;5074122;28;20565;-79
2022/01/18 04:54:16;;;;;;;3.07;2.77;;;;;;;4.66;49.46;95308.22;5072632;28;20202;-79
2022/01/18 04:59:27;;;;;;;2.73;2.53;;;;;;;4.69;49.28;95311.41;5072111;28;20189;-81
2022/01/18 05:01:55;;;;;;;3.30;2.50;;;;;;;4.69;49.30;95311.41;5070620;28;20201;-78
2022/01/18 05:04:23;;;;;;;3.20;2.80;;;;;;;4.67;49.38;95307.34;5073514;28;20596;-79
2022/01/18 05:06:52;;;;;;;3.93;2.70;;;;;;;4.45;49.57;95287.47;5070659;28;20187;-80
2022/01/18 05:09:19;;;;;;;3.93;2.43;;;;;;;4.65;49.46;95317.53;5069803;28;20186;-81
2022/01/18 05:11:53;;;;;;;2.93;2.67;;;;;;;4.64;49.47;95330.31;5070143;28;20190;-80
2022/01/18 05:14:29;;;;;;;3.43;2.90;;;;;;;4.64;49.52;95322.72;5070429;28;20189;-80
2022/01/18 05:17:04;;;;;;;3.07;2.70;;;;;;;4.58;49.67;95321.34;5069959;28;20229;-78
2022/01/18 05:19:43;;;;;;;2.93;2.60;;;;;;;4.61;49.56;95333.00;5074018;28;20189;-83
2022/01/18 05:24:54;;;;;;;7.70;2.97;;;;;;;4.58;49.68;95355.97;5069472;28;20208;-79
2022/01/18 05:27:21;;;;;;;2.77;2.50;;;;;;;4.53;49.80;95339.31;5070509;28;20194;-79
2022/01/18 05:29:47;;;;;;;2.80;2.60;;;;;;;4.58;49.96;95355.97;5069454;28;20213;-77
2022/01/18 05:32:15;;;;;;;2.73;2.43;;;;;;;4.62;49.77;95367.56;5070067;28;20221;-78
2022/01/18 05:34:45;;;;;;;3.07;2.77;;;;;;;4.51;49.77;95358.84;5069570;28;20198;-77
2022/01/18 05:37:12;;;;;;;3.77;2.63;;;;;;;4.61;49.74;95381.94;5069879;28;20196;-80
2022/01/18 05:39:39;;;;;;;2.90;2.37;;;;;;;4.48;49.65;95361.53;5069987;28;20193;-79
2022/01/18 05:42:07;;;;;;;2.83;2.50;;;;;;;4.61;49.67;95376.06;5069893;28;20191;-79
2022/01/18 05:44:33;;;;;;;3.13;2.83;;;;;;;4.61;49.68;95376.88;5069745;28;20569;-80
2022/01/18 05:47:00;;;;;;;2.50;2.30;;;;;;;4.60;49.71;95387.91;5069768;28;20191;-81
2022/01/18 05:49:27;;;;;;;5.30;2.80;;;;;;;4.59;49.76;95388.00;5069389;28;20187;-80
2022/01/18 05:51:55;;;;;;;3.50;2.70;;;;;;;4.29;49.70;95338.13;5069457;28;20661;-77
2022/01/18 05:54:22;;;;;;;4.70;3.27;;;;;;;4.58;49.92;95394.78;5070266;28;20634;-78
2022/01/18 05:56:49;;;;;;;4.00;3.40;;;;;;;4.55;49.75;95384.00;5073774;28;20204;-79
2022/01/18 05:59:23;;;;;;;3.73;3.37;;;;;;;4.59;49.87;95393.88;5073612;28;20255;-82
2022/01/18 06:02:01;;;;;;;5.03;3.43;;;;;;;4.59;49.64;95406.56;5073810;28;20185;-79
2022/01/18 06:07:13;;;;;;;4.80;3.23;;;;;;;4.57;49.87;95402.47;5073755;28;20240;-78
2022/01/18 06:09:40;;;;;;;5.07;3.40;;;;;;;4.61;50.20;95421.66;5073317;28;20193;-78
2022/01/18 06:12:08;;;;;;;4.53;3.10;;;;;;;4.61;49.83;95427.53;5073275;28;20182;-75
2022/01/18 06:14:35;;;;;;;3.93;3.33;;;;;;;4.67;49.77;95427.22;5073567;28;20594;-79
2022/01/18 06:17:02;;;;;;;6.00;3.40;;;;;;;4.70;49.69;95434.63;5073590;28;20241;-81
2022/01/18 06:19:29;;;;;;;5.67;2.93;;;;;;;4.76;49.69;95441.09;5073861;28;20200;-77
2022/01/18 06:21:56;;;;;;;4.13;3.00;;;;;;;4.80;49.46;95446.81;5073336;28;20197;-79
2022/01/18 06:24:24;;;;;;;4.63;2.80;;;;;;;4.82;49.39;95455.97;5073331;28;20575;-79
2022/01/18 06:26:51;;;;;;;3.33;2.87;;;;;;;4.87;49.46;95471.72;5072606;28;20214;-77
2022/01/18 06:29:18;;;;;;;3.40;3.10;;;;;;;4.87;49.30;95464.13;5072998;28;20194;-78
2022/01/18 06:31:45;;;;;;;4.27;3.70;;;;;;;4.76;49.43;95423.38;5072693;28;20221;-79
2022/01/18 06:34:14;;;;;;;4.37;3.20;;;;;;;5.15;49.06;95458.34;5073307;28;20534;-80
2022/01/18 06:36:41;;;;;;;3.43;3.13;;;;;;;5.53;48.73;95468.06;5072861;28;20642;-79
2022/01/18 06:39:08;;;;;;;3.23;2.70;;;;;;;6.00;48.54;95469.53;5072820;28;20576;-78
2022/01/18 06:41:36;;;;;;;4.17;2.87;;;;;;;6.50;48.52;95468.25;5073058;28;20202;-80
2022/01/18 06:44:03;;;;;;;3.77;3.33;;;;;;;7.03;48.39;95459.81;5072505;28;20198;-77
2022/01/18 06:46:30;;;;;;;4.03;2.60;;;;;;;7.60;48.35;95463.81;5072515;28;20228;-79
2022/01/18 06:48:57;;;;;;;3.33;2.80;;;;;;;8.13;48.33;95451.78;5073181;28;20213;-81
2022/01/18 06:51:23;;;;;;;3.13;2.70;;;;;;;8.78;48.00;95448.97;5072884;28;20190;-80
2022/01/18 06:53:50;;;;;;;4.20;2.50;;;;;;;9.38;47.68;95454.09;5072602;28;20190;-80
2022/01/18 06:56:20;;;;;;;4.23;3.40;;;;;;;9.92;46.84;95468.81;5072749;28;20580;-77
2022/01/18 06:58:49;;;;;;;3.03;2.60;;;;;;;10.49;46.74;95473.03;5072471;28;20250;-79
2022/01/18 07:01:16;;;;;;;3.73;2.80;;;;;;;10.94;44.92;95489.13;5072947;28;20199;-79
2022/01/18 07:03:43;;;;;;;5.70;2.80;;;;;;;11.38;44.78;95489.91;5075070;28;20182;-80
2022/01/18 07:06:10;;;;;;;3.90;2.50;;;;;;;11.88;44.39;95497.06;5074437;28;20888;-78
2022/01/18 07:08:38;;;;;;;3.97;2.90;;;;;;;12.33;43.34;95509.56;5075702;28;20194;-81
2022/01/18 07:11:05;;;;;;;3.40;2.73;;;;;;;12.69;42.77;95503.06;5075785;28;20199;-79
2022/01/18 07:13:32;;;;;;;3.50;2.80;;;;;;;13.10;42.29;95501.28;5073997;28;20276;-82
2022/01/18 07:16:00;;;;;;;2.77;2.43;;;;;;;13.39;42.00;95485.94;5075237;28;20186;-84
2022/01/18 07:18:28;;;;;;;2.50;2.30;;;;;;;13.78;41.12;95512.44;5074804;28;20209;-79
2022/01/18 07:20:55;;;;;;;9.30;2.60;;;;;;;14.09;40.77;95520.78;5072884;28;20203;-77
2022/01/18 07:23:22;;;;;;;3.10;2.37;;;;;;;14.42;40.37;95521.19;5072662;28;20190;-79
2022/01/18 07:25:49;;;;;;;4.20;2.77;;;;;;;14.76;39.58;95524.06;5072098;28;20711;-82
2022/01/18 07:28:18;;;;;;;2.77;2.40;;;;;;;14.80;39.33;95526.22;5070198;28;20190;-78
2022/01/18 07:30:46;;;;;;;3.87;2.80;;;;;;;15.02;38.64;95535.31;5071804;28;20677;-86
2022/01/18 07:33:15;;;;;;;3.27;2.87;;;;;;;15.19;38.04;95538.91;5072347;28;20182;-85
2022/01/18 07:35:43;;;;;;;2.97;2.63;;;;;;;15.38;37.57;95527.66;5072299;28;20568;-82
2022/01/18 07:38:12;;;;;;;4.27;2.70;;;;;;;15.57;37.22;95532.66;5071716;28;20198;-77
2022/01/18 07:40:41;;;;;;;5.47;2.47;;;;;;;15.70;37.00;95528.94;5072252;28;20252;-78
2022/01/18 07:43:09;;;;;;;3.20;2.80;;;;;;;15.65;36.62;95511.34;5074028;28;20222;-83
2022/01/18 07:45:36;;;;;;;4.43;2.00;;;;;;;15.96;49.17;95514.31;5076263;28;20214;-79
2022/01/18 07:48:04;;;;;;;3.10;1.70;;;;;;;16.67;50.39;95526.19;5076864;28;20582;-84
2022/01/18 07:50:32;;;;;;;11.17;2.30;;;;;;;17.33;48.13;95526.44;5072484;28;20265;-86
2022/01/18 07:53:03;;;;;;;4.67;2.77;;;;;;;17.63;46.30;95499.97;5072340;28;20319;-85
2022/01/18 07:55:30;;;;;;;4.80;2.50;;;;;;;18.02;43.72;95541.56;5073946;28;20543;-79
2022/01/18 07:57:58;;;;;;;2.40;2.20;;;;;;;18.08;41.49;95550.44;5072070;28;20197;-84
2022/01/18 08:00:25;;;;;;;2.47;2.27;;;;;;;17.85;40.04;95545.13;5071899;28;20230;-82
2022/01/18 08:02:52;;;;;;;4.40;2.70;;;;;;;17.49;38.50;95545.38;5072348;28;20179;-86
2022/01/18 08:05:20;;;;;;;3.83;2.33;;;;;;;17.09;37.19;95553.03;5070733;28;20183;-80
2022/01/18 08:07:48;;;;;;;2.33;2.13;;;;;;;16.55;36.37;95551.47;5071010;28;20190;-79
2022/01/18 08:10:17;;;;;;;2.63;2.37;;;;;;;16.04;35.70;95565.97;5070174;28;20198;-77
2022/01/18 08:12:45;;;;;;;2.73;2.30;;;;;;;15.40;35.24;95556.66;5070401;28;20208;-77
2022/01/18 08:15:16;;;;;;;3.07;2.60;;;;;;;15.01;35.31;95561.25;5070292;28;20195;-82
2022/01/18 08:17:45;;;;;;;2.50;2.20;;;;;;;14.57;35.03;95573.09;5069529;28;20721;-80
2022/01/18 08:20:13;;;;;;;3.00;2.60;;;;;;;14.19;34.99;95579.91;5069871;28;20218;-81
2022/01/18 08:22:41;;;;;;;2.63;2.13;;;;;;;13.80;35.27;95574.78;5071209;28;20190;-79
2022/01/18 08:25:11;;;;;;;4.23;2.47;;;;;;;13.32;35.56;95567.88;5070182;28;20217;-78
2022/01/18 08:27:39;;;;;;;2.57;2.37;;;;;;;13.43;35.42;95572.09;5070172;28;20233;-79
2022/01/18 08:30:09;;;;;;;2.93;2.47;;;;;;;13.24;35.35;95570.28;5070787;28;20190;-83
2022/01/18 08:32:36;;;;;;;4.00;2.47;;;;;;;13.01;35.40;95575.59;5071374;28;20186;-80
2022/01/18 08:35:03;;;;;;;2.90;2.60;;;;;;;12.69;35.67;95565.47;5069815;28;20182;-77
2022/01/18 08:37:30;;;;;;;3.00;2.70;;;;;;;12.72;35.63;95590.09;5070912;28;20190;-77
2022/01/18 08:39:57;;;;;;;3.07;2.73;;;;;;;12.65;35.47;95582.09;5070251;28;20645;-80
2022/01/18 08:42:25;;;;;;;3.00;2.23;;;;;;;12.46;35.77;95587.13;5070438;28;20194;-82
2022/01/18 08:44:52;;;;;;;4.13;3.03;;;;;;;12.05;35.96;95563.94;5070466;28;20197;-80
2022/01/18 08:47:20;;;;;;;3.47;2.37;;;;;;;12.07;35.69;95597.16;5069445;28;20229;-77
2022/01/18 08:49:47;;;;;;;3.70;2.83;;;;;;;11.93;36.07;95605.97;5072046;28;20194;-80
2022/01/18 08:52:14;;;;;;;4.03;2.83;;;;;;;11.89;36.19;95598.63;5072046;28;20209;-79
2022/01/18 08:54:42;;;;;;;6.83;2.93;;;;;;;11.79;36.12;95607.03;5070511;28;20539;-75
2022/01/18 08:57:10;;;;;;;3.63;2.70;;;;;;;11.65;36.16;95602.19;5069899;28;20273;-81
2022/01/18 08:59:39;;;;;;;7.00;3.07;;;;;;;11.53;36.21;95605.72;5069951;28;20186;-79
2022/01/18 09:02:08;;;;;;;6.67;3.50;;;;;;;11.54;36.35;95612.47;5068311;28;20186;-78
2022/01/18 09:04:36;;;;;;;4.53;2.77;;;;;;;11.45;36.29;95602.97;5069410;28;20190;-79
2022/01/18 09:07:07;;;;;;;3.50;2.60;;;;;;;11.41;36.47;95616.94;5069582;28;20831;-81
2022/01/18 09:09:34;;;;;;;2.47;2.30;;;;;;;11.22;36.53;95590.19;5070318;28;20222;-80
2022/01/18 09:12:02;;;;;;;2.67;2.47;;;;;;;11.23;36.57;95601.25;5070016;28;20654;-83
2022/01/18 09:14:29;;;;;;;2.93;2.63;;;;;;;11.18;36.56;95608.47;5070063;28;20601;-83
2022/01/18 09:16:57;;;;;;;5.33;2.60;;;;;;;11.09;36.55;95607.41;5071812;28;20296;-80
2022/01/18 09:19:24;;;;;;;2.67;2.20;;;;;;;11.11;36.25;95600.44;5073785;28;20456;-83
2022/01/18 09:21:51;;;;;;;3.87;2.60;;;;;;;11.17;36.42;95604.28;5075603;28;20190;-84
2022/01/18 09:24:18;;;;;;;2.57;2.37;;;;;;;11.05;36.35;95593.22;5076358;28;20194;-80
2022/01/18 09:26:45;;;;;;;4.27;2.67;;;;;;;11.05;36.37;95601.75;5088901;28;20214;-76
2022/01/18 09:29:14;;;;;;;3.30;2.50;;;;;;;10.98;36.43;95610.00;5091102;28;20186;-78
2022/01/18 09:31:41;;;;;;;3.73;2.30;;;;;;;10.89;36.57;95596.16;5092254;28;20218;-79
2022/01/18 09:34:09;;;;;;;6.10;2.80;;;;;;;10.75;36.74;95584.44;5089218;28;20272;-79
2022/01/18 09:36:36;;;;;;;5.67;2.60;;;;;;;10.71;37.09;95593.28;5080856;28;20213;-77
2022/01/18 09:39:04;;;;;;;3.83;2.50;;;;;;;10.55;37.09;95568.03;5070911;28;20580;-75
2022/01/18 09:41:37;;;;;;;2.60;2.40;;;;;;;10.62;37.21;95586.28;5069305;28;20178;-78
2022/01/18 09:44:04;;;;;;;3.50;2.50;;;;;;;10.42;37.20;95551.97;5069464;28;20186;-78
2022/01/18 09:46:31;;;;;;;4.43;2.53;;;;;;;10.06;37.38;95499.28;5069438;28;20270;-78
2022/01/18 09:49:00;;;;;;;2.80;2.33;;;;;;;10.48;37.63;95563.47;5068807;28;20755;-75
2022/01/18 09:51:29;;;;;;;5.70;2.50;;;;;;;10.47;37.59;95572.91;5069580;28;20186;-79
2022/01/18 09:53:56;;;;;;;2.80;2.50;;;;;;;10.42;37.76;95577.56;5069522;28;20226;-78
2022/01/18 09:56:24;;;;;;;2.50;2.30;;;;;;;10.32;37.81;95568.13;5069065;28;20214;-79
2022/01/18 09:58:51;;;;;;;4.10;2.50;;;;;;;10.09;37.78;95554.47;5069368;28;20178;-76
2022/01/18 10:01:19;;;;;;;4.53;2.63;;;;;;;10.13;38.11;95584.78;5069013;28;20198;-78
2022/01/18 10:03:46;;;;;;;2.60;2.40;;;;;;;9.78;37.98;95560.06;5069200;28;20186;-80
2022/01/18 10:06:12;;;;;;;3.20;2.40;;;;;;;9.85;38.49;95586.00;5068701;28;20665;-77
2022/01/18 10:08:47;;;;;;;3.40;2.40;;;;;;;9.78;38.55;95584.81;5070122;28;20194;-77
2022/01/18 10:11:17;;;;;;;3.57;2.63;;;;;;;9.59;38.82;95551.31;5069310;28;20794;-79
2022/01/18 10:13:45;;;;;;;7.77;2.70;;;;;;;9.73;38.76;95577.47;5069228;28;20196;-80
2022/01/18 10:16:15;;;;;;;5.53;3.07;;;;;;;9.64;38.85;95569.66;5068991;28;20191;-77
2022/01/18 10:18:47;;;;;;;4.57;2.50;;;;;;;9.61;38.95;95569.88;5068725;28;20191;-76
2022/01/18 10:21:16;;;;;;;4.47;3.00;;;;;;;9.53;38.96;95570.41;5069251;28;20190;-78
2022/01/18 10:23:49;;;;;;;5.27;2.73;;;;;;;9.42;39.08;95571.19;5069275;28;20603;-77
2022/01/18 10:26:24;;;;;;;3.50;3.00;;;;;;;9.28;39.30;95584.94;5068851;28;20189;-77
2022/01/18 10:29:02;;;;;;;3.37;2.80;;;;;;;9.17;39.37;95589.16;5069105;28;20194;-80
2022/01/18 10:31:36;;;;;;;4.43;3.17;;;;;;;9.13;39.78;95593.66;5069099;28;20194;-77
2022/01/18 10:34:23;;;;;;;4.90;3.20;;;;;;;9.08;39.77;95587.25;5068770;28;20285;-76
2022/01/18 10:37:00;;;;;;;6.43;3.20;;;;;;;8.94;40.15;95570.34;5069162;28;20202;-78
2022/01/18 10:39:30;;;;;;;5.00;3.50;;;;;;;8.88;39.78;95566.47;5068296;28;20688;-78
2022/01/18 10:41:57;;;;;;;3.53;3.00;;;;;;;8.99;39.94;95571.66;5070624;28;20206;-77
2022/01/18 10:44:25;;;;;;;5.17;3.40;;;;;;;9.27;39.42;95574.81;5072534;28;20197;-79
2022/01/18 10:46:54;;;;;;;4.13;2.80;;;;;;;9.47;39.20;95575.97;5073909;28;20233;-77
2022/01/18 10:49:32;;;;;;;5.20;3.03;;;;;;;9.57;39.22;95584.59;5078520;28;20194;-80
2022/01/18 10:52:06;;;;;;;3.13;2.80;;;;;;;9.62;38.95;95577.41;5076052;28;20194;-77
2022/01/18 10:54:41;;;;;;;6.83;3.00;;;;;;;9.79;38.95;95588.97;5078160;28;20265;-76
2022/01/18 10:57:09;;;;;;;3.47;2.70;;;;;;;9.91;38.76;95587.28;5076090;28;20193;-77
2022/01/18 10:59:38;;;;;;;3.77;2.97;;;;;;;9.96;38.84;95598.78;5073106;28;20210;-77
2022/01/18 11:02:08;;;;;;;6.03;3.13;;;;;;;10.00;38.82;95601.94;5073772;28;20190;-79
2022/01/18 11:04:35;;;;;;;5.70;3.40;;;;;;;9.92;38.75;95565.91;5072574;28;20194;-77
2022/01/18 11:07:04;;;;;;;5.37;2.70;;;;;;;10.12;38.62;95590.84;5072402;28;20218;-79
2022/01/18 11:09:31;;;;;;;4.03;2.77;;;;;;;9.93;38.62;95553.06;5071926;28;20254;-79
2022/01/18 11:12:00;;;;;;;7.00;3.27;;;;;;;10.17;38.60;95585.38;5073015;28;20190;-78
2022/01/18 11:14:27;;;;;;;6.23;3.07;;;;;;;9.98;38.35;95557.81;5072064;28;20186;-80
2022/01/18 11:16:56;;;;;;;5.33;2.40;;;;;;;10.02;38.39;95566.88;5071877;28;20234;-80
2022/01/18 11:19:33;;;;;;;2.77;2.50;;;;;;;9.89;38.25;95566.16;5072093;28;20211;-79
2022/01/18 11:22:03;;;;;;;10.73;3.10;;;;;;;9.72;37.85;95557.97;5072773;28;20196;-80
2022/01/18 11:24:31;;;;;;;3.67;2.33;;;;;;;9.67;38.20;95559.22;5071127;28;20200;-80
2022/01/18 11:27:00;;;;;;;2.73;2.47;;;;;;;9.69;38.10;95560.75;5072417;28;20218;-79
2022/01/18 11:29:29;;;;;;;5.57;2.63;;;;;;;9.67;37.88;95567.72;5072018;28;20194;-82
2022/01/18 11:31:57;;;;;;;3.23;2.77;;;;;;;9.83;38.06;95574.25;5051920;28;20639;-79
2022/01/18 11:34:37;;;;;;;5.57;3.17;;;;;;;9.72;37.65;95549.50;5053418;28;20589;-79
2022/01/18 11:37:17;;;;;;;5.17;2.33;;;;;;;9.83;38.09;95572.50;5053249;28;20233;-78
2022/01/18 11:39:44;;;;;;;4.27;2.50;;;;;;;9.51;38.10;95539.09;5050625;28;20678;-80
2022/01/18 11:42:14;;;;;;;5.03;3.20;;;;;;;9.59;38.19;95558.97;5050281;28;20233;-79
2022/01/18 11:44:42;;;;;;;3.00;2.70;;;;;;;9.47;37.92;95565.78;5052188;28;20201;-82
2022/01/18 11:47:09;;;;;;;5.30;2.80;;;;;;;9.36;38.04;95563.97;5050197;28;20522;-81
2022/01/18 11:49:45;;;;;;;4.00;2.30;;;;;;;9.26;38.16;95548.50;5052972;28;20195;-81
2022/01/18 11:52:34;;;;;;;8.80;3.10;;;;;;;8.95;38.29;95518.41;5049240;28;20190;-81
2022/01/18 11:55:03;;;;;;;12.93;3.33;;;;;;;9.11;38.21;95547.03;5049859;28;20179;-79
2022/01/18 11:57:38;;;;;;;3.53;2.30;;;;;;;9.16;38.16;95555.19;5048779;28;20195;-77
2022/01/18 12:00:24;;;;;;;4.10;2.60;;;;;;;8.85;37.93;95491.91;5048711;28;20183;-77
2022/01/18 12:02:55;;;;;;;2.60;2.40;;;;;;;9.20;38.19;95553.22;5047717;28;20206;-77
2022/01/18 12:05:25;;;;;;;6.37;2.80;;;;;;;9.23;38.04;95545.34;5048560;28;20211;-79
2022/01/18 12:07:58;;;;;;;2.70;2.30;;;;;;;9.26;38.16;95551.03;5041760;23;20331;-81
2022/01/18 12:10:48;;;;;;;3.77;2.70;;;;;;;9.28;38.21;95561.97;5009968;28;20192;-82
2022/01/18 12:13:31;;;;;;;5.40;3.03;;;;;;;9.12;38.18;95530.78;5008785;28;20205;-77
2022/01/18 12:16:00;;;;;;;5.33;2.80;;;;;;;9.28;37.93;95550.91;5009981;28;20287;-78
2022/01/18 12:18:29;;;;;;;3.43;3.03;;;;;;;9.39;37.93;95562.94;5008821;28;20584;-80
2022/01/18 12:20:57;;;;;;;5.07;2.73;;;;;;;9.41;37.79;95566.19;5008889;28;20656;-78
2022/01/18 12:23:26;;;;;;;4.93;3.00;;;;;;;9.41;37.88;95559.38;5008191;28;20188;-78
2022/01/18 12:25:59;;;;;;;4.30;2.67;;;;;;;9.29;37.79;95555.13;5009181;28;20189;-80
2022/01/18 12:35:00;;;;;;;2.63;2.43;;;;;;;9.24;37.65;95537.59;4966992;28;20256;-77
2022/01/18 12:37:44;;;;;;;4.20;2.70;;;;;;;9.28;37.66;95540.72;4967051;28;20558;-77
2022/01/18 12:40:27;;;;;;;4.13;2.47;;;;;;;9.10;37.69;95519.88;4966591;28;20202;-76
2022/01/18 12:45:53;;;;;;;3.80;2.37;;;;;;;9.33;37.95;95556.53;4966711;28;20205;-79